sensor_id;sensor_type;location;lat;lon;timestamp;pressure;altitude;pressure_sealevel;temperature;humidity
58471;BME280;44258;51.288;12.068;2023-07-30T00:01:21;99812.22;;;19.09;72.53
58471;BME280;44258;51.288;12.068;2023-07-30T00:04:09;99812.16;;;19.19;72.20
58471;BME280;44258;51.288;12.068;2023-07-30T00:06:56;99815.19;;;19.16;71.50
58471;BME280;44258;51.288;12.068;2023-07-30T00:09:43;99811.47;;;19.34;71.34
58471;BME280;44258;51.288;12.068;2023-07-30T00:12:30;99806.94;;;19.25;71.32
58471;BME280;44258;51.288;12.068;2023-07-30T00:15:16;99812.16;;;19.37;70.68
58471;BME280;44258;51.288;12.068;2023-07-30T00:18:03;99808.97;;;19.23;71.02
58471;BME280;44258;51.288;12.068;2023-07-30T00:20:51;99810.53;;;19.08;71.45
58471;BME280;44258;51.288;12.068;2023-07-30T00:23:38;99808.09;;;19.05;71.03
58471;BME280;44258;51.288;12.068;2023-07-30T00:26:25;99806.53;;;19.02;71.21
58471;BME280;44258;51.288;12.068;2023-07-30T00:29:14;99816.03;;;18.98;71.69
58471;BME280;44258;51.288;12.068;2023-07-30T00:32:01;99818.75;;;18.98;71.62
58471;BME280;44258;51.288;12.068;2023-07-30T00:34:48;99810.59;;;18.98;71.50
58471;BME280;44258;51.288;12.068;2023-07-30T00:37:36;99801.88;;;19.12;70.73
58471;BME280;44258;51.288;12.068;2023-07-30T00:40:23;99797.97;;;18.97;71.09
58471;BME280;44258;51.288;12.068;2023-07-30T00:43:10;99801.44;;;18.89;71.09
58471;BME280;44258;51.288;12.068;2023-07-30T00:45:57;99789.56;;;18.81;71.14
58471;BME280;44258;51.288;12.068;2023-07-30T00:48:44;99788.63;;;18.72;71.30
58471;BME280;44258;51.288;12.068;2023-07-30T00:51:33;99786.75;;;18.72;71.82
58471;BME280;44258;51.288;12.068;2023-07-30T00:54:21;99791.06;;;18.75;71.56
58471;BME280;44258;51.288;12.068;2023-07-30T00:57:09;99802.47;;;18.79;71.20
58471;BME280;44258;51.288;12.068;2023-07-30T00:59:57;99794.03;;;18.82;71.53
58471;BME280;44258;51.288;12.068;2023-07-30T01:02:44;99798.84;;;18.88;70.79
58471;BME280;44258;51.288;12.068;2023-07-30T01:05:31;99802.78;;;19.03;70.39
58471;BME280;44258;51.288;12.068;2023-07-30T01:08:18;99796.00;;;18.89;70.23
58471;BME280;44258;51.288;12.068;2023-07-30T01:11:07;99788.94;;;18.69;71.28
58471;BME280;44258;51.288;12.068;2023-07-30T01:13:55;99791.50;;;18.70;71.35
58471;BME280;44258;51.288;12.068;2023-07-30T01:16:43;99795.25;;;18.69;71.27
58471;BME280;44258;51.288;12.068;2023-07-30T01:19:30;99797.13;;;18.87;71.15
58471;BME280;44258;51.288;12.068;2023-07-30T01:22:18;99804.34;;;18.78;71.33
58471;BME280;44258;51.288;12.068;2023-07-30T01:25:06;99804.97;;;18.72;71.39
58471;BME280;44258;51.288;12.068;2023-07-30T01:27:54;99799.13;;;18.67;71.31
58471;BME280;44258;51.288;12.068;2023-07-30T01:30:45;99807.91;;;18.61;71.48
58471;BME280;44258;51.288;12.068;2023-07-30T01:33:35;99811.63;;;18.60;71.64
58471;BME280;44258;51.288;12.068;2023-07-30T01:36:25;99816.09;;;18.61;72.02
58471;BME280;44258;51.288;12.068;2023-07-30T01:39:15;99816.63;;;18.64;71.76
58471;BME280;44258;51.288;12.068;2023-07-30T01:42:03;99813.59;;;18.67;71.73
58471;BME280;44258;51.288;12.068;2023-07-30T01:44:49;99818.72;;;18.70;71.20
58471;BME280;44258;51.288;12.068;2023-07-30T01:47:37;99813.13;;;18.72;71.48
58471;BME280;44258;51.288;12.068;2023-07-30T01:50:24;99817.41;;;18.74;71.50
58471;BME280;44258;51.288;12.068;2023-07-30T01:53:11;99810.84;;;18.77;71.76
58471;BME280;44258;51.288;12.068;2023-07-30T01:55:59;99814.63;;;18.94;70.94
58471;BME280;44258;51.288;12.068;2023-07-30T01:58:46;99813.47;;;18.87;71.25
58471;BME280;44258;51.288;12.068;2023-07-30T02:01:32;99802.78;;;19.03;70.59
58471;BME280;44258;51.288;12.068;2023-07-30T02:04:19;99801.84;;;18.94;70.87
58471;BME280;44258;51.288;12.068;2023-07-30T02:07:06;99798.03;;;19.05;70.59
58471;BME280;44258;51.288;12.068;2023-07-30T02:09:53;99798.28;;;18.94;70.80
58471;BME280;44258;51.288;12.068;2023-07-30T02:12:41;99798.03;;;19.05;70.50
58471;BME280;44258;51.288;12.068;2023-07-30T02:15:28;99804.88;;;18.91;70.63
58471;BME280;44258;51.288;12.068;2023-07-30T02:18:15;99794.03;;;18.82;70.70
58471;BME280;44258;51.288;12.068;2023-07-30T02:21:03;99792.47;;;18.79;71.25
58471;BME280;44258;51.288;12.068;2023-07-30T02:23:49;99799.94;;;18.77;71.26
58471;BME280;44258;51.288;12.068;2023-07-30T02:26:36;99802.00;;;18.93;70.83
58471;BME280;44258;51.288;12.068;2023-07-30T02:29:25;99797.75;;;18.81;71.46
58471;BME280;44258;51.288;12.068;2023-07-30T02:32:12;99795.56;;;18.84;71.43
58471;BME280;44258;51.288;12.068;2023-07-30T02:34:59;99799.00;;;18.86;71.55
58471;BME280;44258;51.288;12.068;2023-07-30T02:37:45;99796.50;;;19.03;70.78
58471;BME280;44258;51.288;12.068;2023-07-30T02:40:32;99805.97;;;18.99;71.01
58471;BME280;44258;51.288;12.068;2023-07-30T02:43:19;99804.31;;;18.88;71.39
58471;BME280;44258;51.288;12.068;2023-07-30T02:46:07;99805.06;;;18.80;72.04
58471;BME280;44258;51.288;12.068;2023-07-30T02:48:54;99810.97;;;18.76;72.15
58471;BME280;44258;51.288;12.068;2023-07-30T02:51:41;99806.00;;;18.89;71.93
58471;BME280;44258;51.288;12.068;2023-07-30T02:54:29;99806.47;;;18.84;72.15
58471;BME280;44258;51.288;12.068;2023-07-30T02:57:15;99811.06;;;18.84;72.52
58471;BME280;44258;51.288;12.068;2023-07-30T03:00:02;99802.16;;;19.09;71.89
58471;BME280;44258;51.288;12.068;2023-07-30T03:02:51;99809.50;;;19.09;71.41
58471;BME280;44258;51.288;12.068;2023-07-30T03:05:41;99817.53;;;19.10;71.10
58471;BME280;44258;51.288;12.068;2023-07-30T03:08:28;99812.31;;;19.17;71.01
58471;BME280;44258;51.288;12.068;2023-07-30T03:11:15;99814.81;;;19.10;70.99
58471;BME280;44258;51.288;12.068;2023-07-30T03:14:02;99816.69;;;19.10;71.29
58471;BME280;44258;51.288;12.068;2023-07-30T03:16:49;99821.81;;;19.13;71.27
58471;BME280;44258;51.288;12.068;2023-07-30T03:19:37;99818.69;;;19.08;71.29
58471;BME280;44258;51.288;12.068;2023-07-30T03:22:24;99810.19;;;19.11;71.15
58471;BME280;44258;51.288;12.068;2023-07-30T03:25:11;99814.75;;;19.38;70.68
58471;BME280;44258;51.288;12.068;2023-07-30T03:27:57;99819.66;;;19.34;70.57
58471;BME280;44258;51.288;12.068;2023-07-30T03:30:44;99814.81;;;19.46;69.95
58471;BME280;44258;51.288;12.068;2023-07-30T03:33:31;99814.06;;;19.36;70.32
58471;BME280;44258;51.288;12.068;2023-07-30T03:36:21;99824.47;;;19.23;70.75
58471;BME280;44258;51.288;12.068;2023-07-30T03:39:08;99829.63;;;19.26;70.65
58471;BME280;44258;51.288;12.068;2023-07-30T03:41:56;99834.53;;;19.22;70.82
58471;BME280;44258;51.288;12.068;2023-07-30T03:44:43;99833.50;;;19.23;71.27
58471;BME280;44258;51.288;12.068;2023-07-30T03:47:30;99838.81;;;19.25;70.68
58471;BME280;44258;51.288;12.068;2023-07-30T03:50:16;99831.81;;;19.22;70.96
58471;BME280;44258;51.288;12.068;2023-07-30T03:53:05;99835.53;;;19.39;70.61
58471;BME280;44258;51.288;12.068;2023-07-30T03:55:51;99843.25;;;19.26;70.23
58471;BME280;44258;51.288;12.068;2023-07-30T03:58:38;99833.66;;;19.22;70.85
58471;BME280;44258;51.288;12.068;2023-07-30T04:01:25;99839.13;;;19.22;70.67
58471;BME280;44258;51.288;12.068;2023-07-30T04:04:13;99838.25;;;19.21;70.88
58471;BME280;44258;51.288;12.068;2023-07-30T04:07:00;99843.56;;;19.41;70.20
58471;BME280;44258;51.288;12.068;2023-07-30T04:09:48;99841.06;;;19.29;69.87
58471;BME280;44258;51.288;12.068;2023-07-30T04:12:35;99844.56;;;19.22;70.45
58471;BME280;44258;51.288;12.068;2023-07-30T04:15:22;99861.06;;;19.20;70.99
58471;BME280;44258;51.288;12.068;2023-07-30T04:18:09;99856.47;;;19.21;70.91
58471;BME280;44258;51.288;12.068;2023-07-30T04:20:56;99863.09;;;19.18;71.09
58471;BME280;44258;51.288;12.068;2023-07-30T04:23:42;99864.50;;;19.22;70.95
58471;BME280;44258;51.288;12.068;2023-07-30T04:26:31;99848.84;;;19.24;71.31
58471;BME280;44258;51.288;12.068;2023-07-30T04:29:18;99846.84;;;19.26;70.93
58471;BME280;44258;51.288;12.068;2023-07-30T04:32:06;99857.25;;;19.31;70.75
58471;BME280;44258;51.288;12.068;2023-07-30T04:34:53;99859.00;;;19.32;70.65
58471;BME280;44258;51.288;12.068;2023-07-30T04:37:40;99864.28;;;19.33;70.75
58471;BME280;44258;51.288;12.068;2023-07-30T04:40:26;99863.66;;;19.58;70.42
58471;BME280;44258;51.288;12.068;2023-07-30T04:43:14;99872.78;;;19.48;69.84
58471;BME280;44258;51.288;12.068;2023-07-30T04:46:01;99887.13;;;19.50;70.09
58471;BME280;44258;51.288;12.068;2023-07-30T04:48:48;99893.19;;;19.44;70.55
58471;BME280;44258;51.288;12.068;2023-07-30T04:51:35;99895.34;;;19.23;71.55
58471;BME280;44258;51.288;12.068;2023-07-30T04:54:23;99893.72;;;19.30;70.96
58471;BME280;44258;51.288;12.068;2023-07-30T04:57:10;99896.38;;;19.40;70.64
58471;BME280;44258;51.288;12.068;2023-07-30T04:59:58;99898.94;;;19.41;70.71
58471;BME280;44258;51.288;12.068;2023-07-30T05:02:45;99898.81;;;19.43;70.53
58471;BME280;44258;51.288;12.068;2023-07-30T05:05:32;99901.19;;;19.46;70.48
58471;BME280;44258;51.288;12.068;2023-07-30T05:08:19;99893.59;;;19.67;69.89
58471;BME280;44258;51.288;12.068;2023-07-30T05:11:05;99900.66;;;19.60;70.22
58471;BME280;44258;51.288;12.068;2023-07-30T05:13:53;99913.59;;;19.58;70.03
58471;BME280;44258;51.288;12.068;2023-07-30T05:16:42;99905.75;;;19.55;70.37
58471;BME280;44258;51.288;12.068;2023-07-30T05:19:29;99905.19;;;19.51;70.40
58471;BME280;44258;51.288;12.068;2023-07-30T05:22:15;99900.84;;;19.77;69.59
58471;BME280;44258;51.288;12.068;2023-07-30T05:25:03;99905.59;;;19.74;69.67
58471;BME280;44258;51.288;12.068;2023-07-30T05:27:49;99901.31;;;19.72;69.52
58471;BME280;44258;51.288;12.068;2023-07-30T05:30:36;99908.19;;;19.76;70.24
58471;BME280;44258;51.288;12.068;2023-07-30T05:33:25;99904.28;;;19.79;69.73
58471;BME280;44258;51.288;12.068;2023-07-30T05:36:12;99915.81;;;19.90;70.09
58471;BME280;44258;51.288;12.068;2023-07-30T05:38:58;99917.91;;;19.97;69.77
58471;BME280;44258;51.288;12.068;2023-07-30T05:41:45;99920.19;;;20.01;69.98
58471;BME280;44258;51.288;12.068;2023-07-30T05:44:32;99921.13;;;20.10;69.94
58471;BME280;44258;51.288;12.068;2023-07-30T05:47:19;99920.97;;;20.38;69.17
58471;BME280;44258;51.288;12.068;2023-07-30T05:50:08;99932.91;;;20.37;69.58
58471;BME280;44258;51.288;12.068;2023-07-30T05:52:55;99923.50;;;20.31;69.62
58471;BME280;44258;51.288;12.068;2023-07-30T05:55:42;99926.78;;;20.17;70.09
58471;BME280;44258;51.288;12.068;2023-07-30T05:58:29;99934.28;;;20.14;70.24
58471;BME280;44258;51.288;12.068;2023-07-30T06:01:16;99941.13;;;20.19;69.92
58471;BME280;44258;51.288;12.068;2023-07-30T06:04:02;99937.47;;;20.28;69.54
58471;BME280;44258;51.288;12.068;2023-07-30T06:06:51;99937.13;;;20.31;69.50
58471;BME280;44258;51.288;12.068;2023-07-30T06:09:38;99939.09;;;20.39;68.83
58471;BME280;44258;51.288;12.068;2023-07-30T06:12:24;99940.97;;;20.56;68.56
58471;BME280;44258;51.288;12.068;2023-07-30T06:15:11;99942.56;;;20.49;68.79
58471;BME280;44258;51.288;12.068;2023-07-30T06:17:58;99939.97;;;20.65;68.27
58471;BME280;44258;51.288;12.068;2023-07-30T06:20:45;99939.44;;;20.96;67.33
58471;BME280;44258;51.288;12.068;2023-07-30T06:23:33;99940.19;;;21.06;65.84
58471;BME280;44258;51.288;12.068;2023-07-30T06:26:20;99939.91;;;21.18;64.55
58471;BME280;44258;51.288;12.068;2023-07-30T06:29:07;99945.22;;;21.19;63.98
58471;BME280;44258;51.288;12.068;2023-07-30T06:31:54;99945.31;;;21.01;62.31
58471;BME280;44258;51.288;12.068;2023-07-30T06:34:41;99945.25;;;20.93;64.03
58471;BME280;44258;51.288;12.068;2023-07-30T06:37:28;99948.09;;;21.18;63.67
58471;BME280;44258;51.288;12.068;2023-07-30T06:40:16;99937.16;;;21.52;64.68
58471;BME280;44258;51.288;12.068;2023-07-30T06:43:03;99941.97;;;21.66;65.02
58471;BME280;44258;51.288;12.068;2023-07-30T06:45:50;99938.56;;;21.72;65.21
58471;BME280;44258;51.288;12.068;2023-07-30T06:48:37;99943.00;;;21.73;64.66
58471;BME280;44258;51.288;12.068;2023-07-30T06:51:24;99944.34;;;21.61;65.75
58471;BME280;44258;51.288;12.068;2023-07-30T06:54:11;99938.41;;;21.82;65.31
58471;BME280;44258;51.288;12.068;2023-07-30T06:57:00;99947.63;;;21.81;64.81
58471;BME280;44258;51.288;12.068;2023-07-30T06:59:47;99935.28;;;21.69;64.92
58471;BME280;44258;51.288;12.068;2023-07-30T07:02:33;99941.47;;;21.96;65.98
58471;BME280;44258;51.288;12.068;2023-07-30T07:05:21;99932.97;;;22.40;64.67
58471;BME280;44258;51.288;12.068;2023-07-30T07:08:08;99942.69;;;22.50;63.81
58471;BME280;44258;51.288;12.068;2023-07-30T07:10:57;99941.47;;;22.78;63.22
58471;BME280;44258;51.288;12.068;2023-07-30T07:13:45;99945.63;;;23.21;62.74
58471;BME280;44258;51.288;12.068;2023-07-30T07:16:33;99939.22;;;23.68;61.74
58471;BME280;44258;51.288;12.068;2023-07-30T07:19:20;99944.47;;;23.78;59.26
58471;BME280;44258;51.288;12.068;2023-07-30T07:22:07;99940.34;;;23.82;57.78
58471;BME280;44258;51.288;12.068;2023-07-30T07:24:54;99943.50;;;23.71;55.69
58471;BME280;44258;51.288;12.068;2023-07-30T07:27:40;99936.47;;;23.37;56.17
58471;BME280;44258;51.288;12.068;2023-07-30T07:30:29;99938.38;;;23.28;55.93
58471;BME280;44258;51.288;12.068;2023-07-30T07:33:16;99938.38;;;23.28;56.27
58471;BME280;44258;51.288;12.068;2023-07-30T07:36:04;99944.78;;;23.21;56.72
58471;BME280;44258;51.288;12.068;2023-07-30T07:38:51;99945.66;;;23.52;54.75
58471;BME280;44258;51.288;12.068;2023-07-30T07:41:38;99957.03;;;23.96;55.08
58471;BME280;44258;51.288;12.068;2023-07-30T07:44:25;99943.03;;;23.90;54.33
58471;BME280;44258;51.288;12.068;2023-07-30T07:47:14;99943.31;;;23.96;54.72
58471;BME280;44258;51.288;12.068;2023-07-30T07:50:01;99943.25;;;23.81;54.71
58471;BME280;44258;51.288;12.068;2023-07-30T07:52:47;99949.91;;;23.55;55.40
58471;BME280;44258;51.288;12.068;2023-07-30T07:55:34;99937.69;;;23.66;55.22
58471;BME280;44258;51.288;12.068;2023-07-30T07:58:21;99941.22;;;23.51;55.62
58471;BME280;44258;51.288;12.068;2023-07-30T08:01:08;99951.06;;;23.69;54.60
58471;BME280;44258;51.288;12.068;2023-07-30T08:03:57;99946.91;;;23.73;55.25
58471;BME280;44258;51.288;12.068;2023-07-30T08:06:44;99948.97;;;23.71;54.51
58471;BME280;44258;51.288;12.068;2023-07-30T08:09:31;99939.63;;;23.57;54.98
58471;BME280;44258;51.288;12.068;2023-07-30T08:12:19;99946.13;;;23.87;55.37
58471;BME280;44258;51.288;12.068;2023-07-30T08:15:07;99943.06;;;24.28;53.96
58471;BME280;44258;51.288;12.068;2023-07-30T08:17:54;99951.72;;;24.63;53.80
58471;BME280;44258;51.288;12.068;2023-07-30T08:20:44;99951.75;;;24.93;52.58
58471;BME280;44258;51.288;12.068;2023-07-30T08:23:31;99944.81;;;25.27;52.73
58471;BME280;44258;51.288;12.068;2023-07-30T08:26:19;99951.25;;;25.49;51.55
58471;BME280;44258;51.288;12.068;2023-07-30T08:29:05;99948.34;;;25.72;50.65
58471;BME280;44258;51.288;12.068;2023-07-30T08:31:55;99951.16;;;25.42;50.86
58471;BME280;44258;51.288;12.068;2023-07-30T08:34:42;99952.69;;;25.15;49.81
58471;BME280;44258;51.288;12.068;2023-07-30T08:37:30;99943.22;;;24.50;51.08
58471;BME280;44258;51.288;12.068;2023-07-30T08:40:17;99940.84;;;24.85;51.71
58471;BME280;44258;51.288;12.068;2023-07-30T08:43:04;99933.06;;;24.74;52.29
58471;BME280;44258;51.288;12.068;2023-07-30T08:45:51;99938.94;;;25.15;51.08
58471;BME280;44258;51.288;12.068;2023-07-30T08:48:39;99933.69;;;25.50;49.35
58471;BME280;44258;51.288;12.068;2023-07-30T08:51:26;99940.19;;;25.64;47.99
58471;BME280;44258;51.288;12.068;2023-07-30T08:54:18;99937.69;;;25.69;46.55
58471;BME280;44258;51.288;12.068;2023-07-30T08:57:12;99942.22;;;25.91;45.85
58471;BME280;44258;51.288;12.068;2023-07-30T09:00:02;99943.28;;;26.12;45.48
58471;BME280;44258;51.288;12.068;2023-07-30T09:02:56;99938.28;;;26.22;44.79
58471;BME280;44258;51.288;12.068;2023-07-30T09:05:48;99936.69;;;26.35;45.22
58471;BME280;44258;51.288;12.068;2023-07-30T09:08:38;99937.59;;;26.42;45.40
58471;BME280;44258;51.288;12.068;2023-07-30T09:11:27;99941.06;;;26.79;43.64
58471;BME280;44258;51.288;12.068;2023-07-30T09:14:19;99945.72;;;26.50;44.00
58471;BME280;44258;51.288;12.068;2023-07-30T09:17:06;99939.13;;;26.23;45.25
58471;BME280;44258;51.288;12.068;2023-07-30T09:19:53;99939.34;;;25.63;45.45
58471;BME280;44258;51.288;12.068;2023-07-30T09:22:40;99937.44;;;26.00;44.94
58471;BME280;44258;51.288;12.068;2023-07-30T09:25:27;99942.09;;;26.21;43.76
58471;BME280;44258;51.288;12.068;2023-07-30T09:28:18;99936.84;;;26.05;42.43
58471;BME280;44258;51.288;12.068;2023-07-30T09:31:06;99940.84;;;26.02;44.18
58471;BME280;44258;51.288;12.068;2023-07-30T09:33:55;99939.19;;;26.29;44.48
58471;BME280;44258;51.288;12.068;2023-07-30T09:36:44;99937.22;;;26.45;43.42
58471;BME280;44258;51.288;12.068;2023-07-30T09:39:32;99937.44;;;26.72;43.34
58471;BME280;44258;51.288;12.068;2023-07-30T09:42:19;99920.22;;;26.69;44.00
58471;BME280;44258;51.288;12.068;2023-07-30T09:45:08;99928.84;;;26.88;43.12
58471;BME280;44258;51.288;12.068;2023-07-30T09:47:55;99934.19;;;26.96;42.38
58471;BME280;44258;51.288;12.068;2023-07-30T09:50:43;99930.53;;;26.89;41.42
58471;BME280;44258;51.288;12.068;2023-07-30T09:53:30;99922.91;;;26.91;40.88
58471;BME280;44258;51.288;12.068;2023-07-30T09:56:20;99923.47;;;26.80;40.67
58471;BME280;44258;51.288;12.068;2023-07-30T09:59:07;99937.00;;;26.75;41.64
58471;BME280;44258;51.288;12.068;2023-07-30T10:01:57;99927.97;;;26.59;42.06
58471;BME280;44258;51.288;12.068;2023-07-30T10:04:48;99929.78;;;26.67;42.23
58471;BME280;44258;51.288;12.068;2023-07-30T10:07:35;99937.50;;;26.85;41.64
58471;BME280;44258;51.288;12.068;2023-07-30T10:10:27;99929.50;;;26.90;41.34
58471;BME280;44258;51.288;12.068;2023-07-30T10:13:16;99939.25;;;26.93;40.43
58471;BME280;44258;51.288;12.068;2023-07-30T10:16:09;99936.53;;;26.64;40.28
58471;BME280;44258;51.288;12.068;2023-07-30T10:18:58;99933.50;;;26.59;41.05
58471;BME280;44258;51.288;12.068;2023-07-30T10:21:45;99937.00;;;26.46;41.71
58471;BME280;44258;51.288;12.068;2023-07-30T10:24:32;99937.91;;;26.54;41.66
58471;BME280;44258;51.288;12.068;2023-07-30T10:27:23;99938.75;;;26.54;41.04
58471;BME280;44258;51.288;12.068;2023-07-30T10:30:12;99929.88;;;26.30;40.36
58471;BME280;44258;51.288;12.068;2023-07-30T10:33:01;99935.56;;;26.50;40.39
58471;BME280;44258;51.288;12.068;2023-07-30T10:35:54;99930.09;;;26.57;40.16
58471;BME280;44258;51.288;12.068;2023-07-30T10:38:41;99926.78;;;26.68;41.16
58471;BME280;44258;51.288;12.068;2023-07-30T10:41:29;99918.28;;;26.98;40.70
58471;BME280;44258;51.288;12.068;2023-07-30T10:44:24;99914.41;;;27.27;40.96
58471;BME280;44258;51.288;12.068;2023-07-30T10:47:13;99905.13;;;27.42;39.48
58471;BME280;44258;51.288;12.068;2023-07-30T10:50:01;99899.06;;;27.73;39.08
58471;BME280;44258;51.288;12.068;2023-07-30T10:52:50;99902.59;;;27.40;39.87
58471;BME280;44258;51.288;12.068;2023-07-30T10:55:37;99893.94;;;27.70;39.53
58471;BME280;44258;51.288;12.068;2023-07-30T10:58:24;99892.00;;;27.50;39.49
58471;BME280;44258;51.288;12.068;2023-07-30T11:01:11;99895.84;;;27.63;39.55
58471;BME280;44258;51.288;12.068;2023-07-30T11:03:59;99889.53;;;27.82;39.01
58471;BME280;44258;51.288;12.068;2023-07-30T11:06:46;99894.41;;;27.80;39.88
58471;BME280;44258;51.288;12.068;2023-07-30T11:09:35;99882.31;;;27.95;39.36
58471;BME280;44258;51.288;12.068;2023-07-30T11:12:22;99884.59;;;27.78;38.41
58471;BME280;44258;51.288;12.068;2023-07-30T11:15:10;99879.28;;;27.69;38.75
58471;BME280;44258;51.288;12.068;2023-07-30T11:17:58;99882.47;;;27.12;40.41
58471;BME280;44258;51.288;12.068;2023-07-30T11:20:45;99880.75;;;27.04;39.90
58471;BME280;44258;51.288;12.068;2023-07-30T11:23:33;99865.59;;;27.28;40.77
58471;BME280;44258;51.288;12.068;2023-07-30T11:26:21;99874.59;;;27.70;39.77
58471;BME280;44258;51.288;12.068;2023-07-30T11:29:15;99879.78;;;28.00;39.45
58471;BME280;44258;51.288;12.068;2023-07-30T11:32:03;99866.09;;;27.78;38.89
58471;BME280;44258;51.288;12.068;2023-07-30T11:34:51;99875.84;;;27.54;40.02
58471;BME280;44258;51.288;12.068;2023-07-30T11:37:39;99861.25;;;27.80;39.08
58471;BME280;44258;51.288;12.068;2023-07-30T11:40:29;99862.34;;;27.86;38.98
58471;BME280;44258;51.288;12.068;2023-07-30T11:43:18;99861.91;;;27.96;39.07
58471;BME280;44258;51.288;12.068;2023-07-30T11:46:07;99865.28;;;27.78;39.01
58471;BME280;44258;51.288;12.068;2023-07-30T11:49:10;99852.13;;;27.80;39.25
58471;BME280;44258;51.288;12.068;2023-07-30T11:52:07;99861.69;;;27.84;39.97
58471;BME280;44258;51.288;12.068;2023-07-30T11:55:01;99862.34;;;28.06;39.33
58471;BME280;44258;51.288;12.068;2023-07-30T11:57:48;99859.38;;;27.87;38.80
58471;BME280;44258;51.288;12.068;2023-07-30T12:00:37;99843.81;;;27.73;39.45
58471;BME280;44258;51.288;12.068;2023-07-30T12:03:25;99861.41;;;27.59;39.59
58471;BME280;44258;51.288;12.068;2023-07-30T12:06:12;99860.59;;;27.65;39.91
58471;BME280;44258;51.288;12.068;2023-07-30T12:08:59;99854.38;;;27.49;39.65
58471;BME280;44258;51.288;12.068;2023-07-30T12:11:47;99848.41;;;27.46;39.54
58471;BME280;44258;51.288;12.068;2023-07-30T12:14:43;99849.94;;;27.00;40.11
58471;BME280;44258;51.288;12.068;2023-07-30T12:17:32;99849.91;;;26.94;40.58
58471;BME280;44258;51.288;12.068;2023-07-30T12:20:19;99849.50;;;26.97;41.05
58471;BME280;44258;51.288;12.068;2023-07-30T12:23:06;99850.19;;;26.64;40.98
58471;BME280;44258;51.288;12.068;2023-07-30T12:25:53;99852.22;;;26.83;40.84
58471;BME280;44258;51.288;12.068;2023-07-30T12:28:40;99850.47;;;26.47;42.40
58471;BME280;44258;51.288;12.068;2023-07-30T12:31:27;99846.94;;;26.25;42.13
58471;BME280;44258;51.288;12.068;2023-07-30T12:34:15;99852.28;;;25.84;41.93
58471;BME280;44258;51.288;12.068;2023-07-30T12:37:03;99857.19;;;25.67;42.16
58471;BME280;44258;51.288;12.068;2023-07-30T12:39:50;99870.38;;;25.50;44.12
58471;BME280;44258;51.288;12.068;2023-07-30T12:42:37;99864.06;;;25.20;45.39
58471;BME280;44258;51.288;12.068;2023-07-30T12:45:26;99893.28;;;24.46;49.06
58471;BME280;44258;51.288;12.068;2023-07-30T12:48:13;99894.56;;;24.21;50.15
58471;BME280;44258;51.288;12.068;2023-07-30T12:51:02;99891.81;;;23.98;51.29
58471;BME280;44258;51.288;12.068;2023-07-30T12:53:48;99884.06;;;24.01;51.83
58471;BME280;44258;51.288;12.068;2023-07-30T12:56:35;99898.59;;;24.10;51.26
58471;BME280;44258;51.288;12.068;2023-07-30T12:59:22;99902.25;;;24.25;50.79
58471;BME280;44258;51.288;12.068;2023-07-30T13:02:09;99907.66;;;24.34;51.07
58471;BME280;44258;51.288;12.068;2023-07-30T13:04:57;99890.03;;;24.28;51.15
58471;BME280;44258;51.288;12.068;2023-07-30T13:07:45;99899.31;;;24.27;51.95
58471;BME280;44258;51.288;12.068;2023-07-30T13:10:33;99890.78;;;24.22;52.54
58471;BME280;44258;51.288;12.068;2023-07-30T13:13:21;99895.78;;;24.18;52.14
58471;BME280;44258;51.288;12.068;2023-07-30T13:16:09;99906.47;;;24.13;53.19
58471;BME280;44258;51.288;12.068;2023-07-30T13:18:56;99905.69;;;24.04;52.88
58471;BME280;44258;51.288;12.068;2023-07-30T13:21:43;99896.63;;;23.72;53.08
58471;BME280;44258;51.288;12.068;2023-07-30T13:24:31;99895.81;;;23.41;53.90
58471;BME280;44258;51.288;12.068;2023-07-30T13:27:20;99899.38;;;23.49;54.72
58471;BME280;44258;51.288;12.068;2023-07-30T13:30:08;99901.06;;;23.82;53.36
58471;BME280;44258;51.288;12.068;2023-07-30T13:32:55;99899.69;;;24.01;53.36
58471;BME280;44258;51.288;12.068;2023-07-30T13:35:45;99901.66;;;24.15;53.09
58471;BME280;44258;51.288;12.068;2023-07-30T13:38:32;99894.34;;;23.84;53.30
58471;BME280;44258;51.288;12.068;2023-07-30T13:41:22;99904.16;;;23.79;53.95
58471;BME280;44258;51.288;12.068;2023-07-30T13:44:08;99911.75;;;23.91;53.79
58471;BME280;44258;51.288;12.068;2023-07-30T13:46:56;99901.88;;;23.59;54.62
58471;BME280;44258;51.288;12.068;2023-07-30T13:49:43;99906.81;;;22.93;55.42
58471;BME280;44258;51.288;12.068;2023-07-30T13:52:30;99902.97;;;23.50;54.85
58471;BME280;44258;51.288;12.068;2023-07-30T13:55:17;99912.94;;;23.43;54.56
58471;BME280;44258;51.288;12.068;2023-07-30T13:58:07;99903.31;;;23.78;54.40
58471;BME280;44258;51.288;12.068;2023-07-30T14:00:54;99900.84;;;23.83;53.85
58471;BME280;44258;51.288;12.068;2023-07-30T14:03:41;99910.13;;;23.82;54.32
58471;BME280;44258;51.288;12.068;2023-07-30T14:06:28;99913.56;;;23.53;55.19
58471;BME280;44258;51.288;12.068;2023-07-30T14:09:16;99917.16;;;23.62;55.79
58471;BME280;44258;51.288;12.068;2023-07-30T14:12:06;99914.72;;;23.27;55.67
58471;BME280;44258;51.288;12.068;2023-07-30T14:14:54;99918.81;;;23.31;54.37
58471;BME280;44258;51.288;12.068;2023-07-30T14:17:41;99914.97;;;23.09;54.28
58471;BME280;44258;51.288;12.068;2023-07-30T14:20:31;99915.81;;;23.10;54.13
58471;BME280;44258;51.288;12.068;2023-07-30T14:23:18;99922.78;;;22.81;53.35
58471;BME280;44258;51.288;12.068;2023-07-30T14:26:05;99917.88;;;22.44;54.21
58471;BME280;44258;51.288;12.068;2023-07-30T14:28:54;99941.31;;;21.81;57.80
58471;BME280;44258;51.288;12.068;2023-07-30T14:31:42;99937.66;;;21.64;59.41
58471;BME280;44258;51.288;12.068;2023-07-30T14:34:29;99948.47;;;21.82;59.49
58471;BME280;44258;51.288;12.068;2023-07-30T14:37:16;99955.16;;;21.87;59.75